Aviation Digital Data Service (ADDS)

Output produced by METARs form (0211 UTC 22 September 2014)
found at http://www.aviationweather.gov/adds/metars/
 
KCRQ 220153Z AUTO 28006KT 10SM FEW015 22/17 A2992 RMK AO2 SLP130 T02170167
KCRQ 220053Z AUTO 27007KT 10SM CLR 22/16 A2992 RMK AO2 SLP128 T02220161
KCRQ 212353Z AUTO 28006KT 10SM CLR 23/16 A2992 RMK AO2 SLP129 T02280156 10239 20228 58007
KCRQ 212253Z AUTO 28007KT 260V330 10SM CLR 23/15 A2993 RMK AO2 SLP131 T02330150
KCRQ 212340Z 2200/2224 VRB04KT P6SM FEW012 
     FM220700 VRB04KT P6SM OVC012 
     FM221700 VRB04KT P6SM FEW012 
     FM222100 27008KT P6SM SKC